Time;durP1;ratioP1;P1;durP2;ratioP2;P2;SDS_P1;SDS_P2;PMS_P1;PMS_P2;Temp;Humidity;BMP_temperature;BMP_pressure;BME280_temperature;BME280_humidity;BME280_pressure;Samples;Min_cycle;Max_cycle;Signal;HPM_P1;HPM_P2
2022/02/19 01:16:19;;;;;;;2.78;0.95;;;;;;;;;;6244579;22;20199;-90
2022/02/19 01:19:26;;;;;;;9.43;1.17;;;;;;;;;;6247317;23;20161;-91
2022/02/19 01:22:32;;;;;;;7.55;1.20;;;;;;;;;;6249286;23;20178;-89
2022/02/19 01:25:40;;;;;;;2.88;0.80;;;;;;;;;;6250888;23;20194;-89
2022/02/19 01:28:47;;;;;;;4.82;1.30;;;;;;;;;;6247926;22;20251;-90
2022/02/19 01:32:00;;;;;;;4.97;1.00;;;;;;;;;;6248651;23;20258;-90
2022/02/19 01:35:06;;;;;;;3.10;0.85;;;;;;;;;;6246593;22;20166;-89
2022/02/19 01:38:50;;;;;;;3.80;0.90;;;;;;;;;;6243899;22;20158;-89
2022/02/19 01:41:55;;;;;;;2.25;0.80;;;;;;;;;;6242875;23;20253;-89
2022/02/19 01:45:01;;;;;;;4.40;0.98;;;;;;;;;;6244947;23;20170;-90
2022/02/19 01:48:08;;;;;;;8.60;1.00;;;;;;;;;;6246360;22;20171;-90
2022/02/19 01:51:13;;;;;;;3.25;0.77;;;;;;;;;;6243871;22;20244;-90
2022/02/19 01:54:19;;;;;;;4.22;1.00;;;;;;;;;;6243681;23;20505;-90
2022/02/19 01:57:34;;;;;;;4.57;1.00;;;;;;;;;;6241589;23;20171;-89
2022/02/19 02:00:59;;;;;;;3.72;0.88;;;;;;;;;;6261031;23;20167;-88
2022/02/19 02:04:35;;;;;;;2.13;0.75;;;;;;;;;;6249411;23;20246;-90
2022/02/19 02:07:41;;;;;;;3.22;0.98;;;;;;;;;;6244136;23;20221;-91
2022/02/19 02:10:47;;;;;;;3.67;1.00;;;;;;;;;;6243350;23;20496;-90
2022/02/19 02:14:08;;;;;;;2.95;0.82;;;;;;;;;;6242352;23;20170;-89
2022/02/19 02:17:36;;;;;;;2.47;0.82;;;;;;;;;;6261043;23;20162;-92
2022/02/19 02:20:43;;;;;;;3.83;0.68;;;;;;;;;;6244477;23;20174;-89
2022/02/19 02:23:51;;;;;;;7.88;1.00;;;;;;;;;;6243714;23;20591;-90
2022/02/19 02:26:58;;;;;;;2.30;0.80;;;;;;;;;;6240585;23;20190;-88
2022/02/19 02:30:03;;;;;;;2.25;0.80;;;;;;;;;;6240807;23;20174;-89
2022/02/19 02:33:17;;;;;;;2.35;0.70;;;;;;;;;;6243359;23;20166;-90
2022/02/19 02:36:41;;;;;;;1.58;0.80;;;;;;;;;;6243349;23;20169;-91
2022/02/19 02:39:48;;;;;;;3.90;1.10;;;;;;;;;;6242356;23;20198;-90
2022/02/19 02:42:54;;;;;;;2.97;0.68;;;;;;;;;;6238683;23;20175;-89
2022/02/19 02:45:59;;;;;;;3.63;0.80;;;;;;;;;;6241985;23;20190;-90
2022/02/19 02:49:04;;;;;;;2.03;0.63;;;;;;;;;;6242489;23;20158;-90
2022/02/19 02:52:11;;;;;;;3.97;1.23;;;;;;;;;;6242464;22;20217;-90
2022/02/19 02:55:21;;;;;;;4.27;0.77;;;;;;;;;;6244246;23;20186;-91
2022/02/19 02:58:27;;;;;;;4.25;1.15;;;;;;;;;;6241713;23;20289;-91
2022/02/19 03:01:35;;;;;;;8.57;1.10;;;;;;;;;;6239454;23;20186;-90
2022/02/19 03:04:41;;;;;;;3.28;1.00;;;;;;;;;;6238768;23;20230;-90
2022/02/19 03:07:46;;;;;;;2.63;0.80;;;;;;;;;;6239418;22;20624;-90
2022/02/19 03:10:52;;;;;;;2.40;0.70;;;;;;;;;;6240873;23;20173;-91
2022/02/19 03:13:58;;;;;;;3.00;0.70;;;;;;;;;;6241265;23;20158;-90
2022/02/19 03:17:03;;;;;;;5.17;0.80;;;;;;;;;;6242000;23;20282;-90
2022/02/19 03:20:10;;;;;;;4.05;0.73;;;;;;;;;;6242723;23;20201;-89
2022/02/19 03:23:15;;;;;;;2.15;0.70;;;;;;;;;;6243377;23;20170;-89
2022/02/19 03:26:22;;;;;;;4.00;0.75;;;;;;;;;;6241354;23;20754;-90
2022/02/19 03:29:28;;;;;;;5.47;1.00;;;;;;;;;;6241283;23;20614;-90
2022/02/19 03:32:33;;;;;;;2.85;1.00;;;;;;;;;;6241596;23;20173;-89
2022/02/19 03:35:39;;;;;;;4.47;1.07;;;;;;;;;;6239745;23;20231;-90
2022/02/19 03:38:46;;;;;;;3.55;0.90;;;;;;;;;;6240411;22;20154;-90
2022/02/19 03:41:58;;;;;;;2.37;0.77;;;;;;;;;;6240407;23;20186;-91
2022/02/19 03:45:05;;;;;;;1.87;0.77;;;;;;;;;;6239285;23;20170;-89
2022/02/19 03:48:11;;;;;;;2.77;1.07;;;;;;;;;;6239754;23;20242;-90
2022/02/19 03:51:16;;;;;;;5.00;1.20;;;;;;;;;;6257799;23;20166;-90
2022/02/19 03:54:24;;;;;;;4.15;0.85;;;;;;;;;;6239569;23;20185;-90
2022/02/19 03:57:32;;;;;;;2.90;1.10;;;;;;;;;;6241130;23;20166;-90
2022/02/19 04:00:38;;;;;;;4.23;0.80;;;;;;;;;;6239029;23;20170;-90
2022/02/19 04:03:44;;;;;;;3.13;0.90;;;;;;;;;;6238126;23;20166;-89
2022/02/19 04:06:49;;;;;;;4.93;0.97;;;;;;;;;;6238971;23;20658;-90
2022/02/19 04:10:07;;;;;;;5.07;0.70;;;;;;;;;;6239759;22;20191;-91
2022/02/19 04:13:15;;;;;;;6.63;1.10;;;;;;;;;;6241263;23;20175;-89
2022/02/19 04:16:30;;;;;;;3.87;0.80;;;;;;;;;;6241625;23;20186;-90
2022/02/19 04:19:36;;;;;;;3.40;1.23;;;;;;;;;;6243091;23;20178;-90
2022/02/19 04:22:42;;;;;;;7.13;1.23;;;;;;;;;;6240044;23;20757;-90
2022/02/19 04:25:49;;;;;;;3.20;0.90;;;;;;;;;;6239632;23;20170;-90
2022/02/19 04:29:06;;;;;;;2.63;0.90;;;;;;;;;;6240229;23;20170;-89
2022/02/19 04:32:18;;;;;;;3.83;0.73;;;;;;;;;;6239553;23;20162;-89
2022/02/19 04:35:35;;;;;;;1.37;0.80;;;;;;;;;;6239808;23;20175;-90
2022/02/19 04:38:43;;;;;;;5.33;0.80;;;;;;;;;;6241508;23;20173;-90
2022/02/19 04:41:48;;;;;;;3.53;0.90;;;;;;;;;;6242782;23;20656;-89
2022/02/19 04:44:58;;;;;;;2.50;0.90;;;;;;;;;;6240056;23;20224;-89
2022/02/19 04:48:05;;;;;;;8.23;1.00;;;;;;;;;;6240972;23;20197;-89
2022/02/19 04:51:11;;;;;;;5.05;0.93;;;;;;;;;;6242662;23;20170;-90
2022/02/19 04:54:16;;;;;;;1.17;0.50;;;;;;;;;;6240303;23;20185;-90
2022/02/19 04:57:23;;;;;;;2.47;0.60;;;;;;;;;;6239335;23;20223;-89
2022/02/19 05:00:29;;;;;;;3.40;1.60;;;;;;;;;;6240535;23;20169;-90
2022/02/19 05:04:05;;;;;;;2.50;0.93;;;;;;;;;;6258911;23;20573;-90
2022/02/19 05:07:39;;;;;;;3.07;0.70;;;;;;;;;;6241134;23;20252;-91
2022/02/19 05:10:44;;;;;;;7.83;1.00;;;;;;;;;;6242280;23;20206;-89
2022/02/19 05:13:49;;;;;;;4.20;0.80;;;;;;;;;;6243607;23;20169;-90
2022/02/19 05:16:56;;;;;;;5.37;0.90;;;;;;;;;;6242630;23;20233;-88
2022/02/19 05:20:11;;;;;;;4.57;0.90;;;;;;;;;;6241134;23;20170;-89
2022/02/19 05:23:21;;;;;;;8.17;0.80;;;;;;;;;;6242624;23;20174;-90
2022/02/19 05:26:28;;;;;;;1.80;0.80;;;;;;;;;;6241792;23;20186;-90
2022/02/19 05:29:34;;;;;;;2.43;0.80;;;;;;;;;;6240159;23;20213;-89
2022/02/19 05:32:40;;;;;;;2.97;0.70;;;;;;;;;;6240947;23;20165;-89
2022/02/19 05:35:54;;;;;;;2.80;1.10;;;;;;;;;;6239054;23;20241;-87
2022/02/19 05:39:02;;;;;;;12.30;1.50;;;;;;;;;;6241321;23;20239;-88
2022/02/19 05:42:11;;;;;;;8.67;1.67;;;;;;;;;;6240148;23;20206;-89
2022/02/19 05:45:17;;;;;;;5.03;0.90;;;;;;;;;;6239286;23;20170;-89
2022/02/19 05:48:27;;;;;;;7.83;1.20;;;;;;;;;;6241785;23;20527;-89
2022/02/19 05:51:42;;;;;;;3.97;0.90;;;;;;;;;;6242719;23;20179;-89
2022/02/19 05:54:54;;;;;;;9.17;0.90;;;;;;;;;;6241862;23;20166;-89
2022/02/19 05:58:03;;;;;;;2.87;1.00;;;;;;;;;;6244592;23;20170;-90
2022/02/19 06:01:08;;;;;;;6.57;1.30;;;;;;;;;;6242037;23;20209;-89
2022/02/19 06:04:17;;;;;;;16.07;1.50;;;;;;;;;;6240702;23;20169;-91
2022/02/19 06:07:22;;;;;;;6.53;1.00;;;;;;;;;;6239826;23;20206;-90
2022/02/19 06:10:27;;;;;;;3.33;1.03;;;;;;;;;;6238152;22;20477;-89
2022/02/19 06:13:34;;;;;;;2.27;0.87;;;;;;;;;;6239492;22;20171;-89
2022/02/19 06:16:41;;;;;;;7.30;1.00;;;;;;;;;;6239295;23;20209;-90
2022/02/19 06:19:49;;;;;;;4.33;1.00;;;;;;;;;;6242496;23;20163;-89
2022/02/19 06:22:54;;;;;;;3.73;0.90;;;;;;;;;;6239530;23;20204;-90
2022/02/19 06:26:01;;;;;;;7.50;1.30;;;;;;;;;;6241847;22;20167;-90
2022/02/19 06:29:08;;;;;;;4.87;0.73;;;;;;;;;;6240693;22;20171;-91
2022/02/19 06:32:17;;;;;;;7.93;1.57;;;;;;;;;;6240313;23;20166;-89
2022/02/19 06:35:27;;;;;;;5.47;1.13;;;;;;;;;;6242180;23;20601;-90
2022/02/19 06:38:42;;;;;;;2.33;0.90;;;;;;;;;;6239893;23;20206;-90
2022/02/19 06:41:49;;;;;;;4.40;0.87;;;;;;;;;;6240490;22;20217;-89
2022/02/19 06:45:15;;;;;;;6.33;1.50;;;;;;;;;;6241476;23;20197;-90
2022/02/19 06:48:20;;;;;;;8.13;1.13;;;;;;;;;;6240459;23;20193;-90
2022/02/19 06:51:27;;;;;;;7.13;1.20;;;;;;;;;;6240578;23;20253;-90
2022/02/19 06:54:33;;;;;;;5.07;1.40;;;;;;;;;;6239654;22;20194;-90
2022/02/19 06:57:39;;;;;;;2.63;0.70;;;;;;;;;;6240287;23;20162;-91
2022/02/19 07:00:46;;;;;;;8.23;1.50;;;;;;;;;;6240053;23;20189;-89
2022/02/19 07:03:54;;;;;;;9.00;1.10;;;;;;;;;;6242438;23;20162;-90
2022/02/19 07:07:19;;;;;;;4.07;0.90;;;;;;;;;;6259562;23;20237;-89
2022/02/19 07:10:25;;;;;;;4.47;1.00;;;;;;;;;;6239288;23;20454;-90
2022/02/19 07:13:31;;;;;;;3.07;1.10;;;;;;;;;;6240355;23;20170;-91
2022/02/19 07:16:36;;;;;;;6.03;0.83;;;;;;;;;;6238680;23;20194;-90
2022/02/19 07:19:41;;;;;;;4.60;1.30;;;;;;;;;;6240659;23;20167;-91
2022/02/19 07:22:48;;;;;;;3.63;0.87;;;;;;;;;;6239933;23;20167;-91
2022/02/19 07:25:54;;;;;;;5.13;1.50;;;;;;;;;;6239940;22;20162;-91
2022/02/19 07:29:01;;;;;;;5.03;1.00;;;;;;;;;;6240397;23;20275;-90
2022/02/19 07:32:10;;;;;;;12.03;1.63;;;;;;;;;;6239814;23;20173;-88
2022/02/19 07:35:15;;;;;;;6.10;1.20;;;;;;;;;;6240518;23;20245;-91
2022/02/19 07:38:23;;;;;;;10.37;1.20;;;;;;;;;;6240806;23;20508;-88
2022/02/19 07:41:28;;;;;;;5.73;1.13;;;;;;;;;;6239573;23;20170;-90
2022/02/19 07:44:33;;;;;;;8.83;1.10;;;;;;;;;;6258829;22;20170;-90
2022/02/19 07:47:59;;;;;;;3.70;1.07;;;;;;;;;;6257683;23;20242;-90
2022/02/19 07:58:29;;;;;;;4.10;1.27;;;;;;;;;;6242057;23;20197;-90
2022/02/19 08:01:36;;;;;;;7.83;1.47;;;;;;;;;;6242576;23;20489;-89
2022/02/19 08:04:41;;;;;;;8.70;1.30;;;;;;;;;;6240144;23;20171;-90
2022/02/19 08:07:46;;;;;;;9.83;1.73;;;;;;;;;;6240044;22;20194;-89
2022/02/19 08:11:07;;;;;;;4.60;1.40;;;;;;;;;;6243001;22;20149;-90
2022/02/19 08:14:14;;;;;;;6.80;1.77;;;;;;;;;;6240209;23;20162;-90
2022/02/19 08:17:19;;;;;;;7.57;1.63;;;;;;;;;;6241764;23;20178;-89
2022/02/19 08:20:25;;;;;;;6.33;1.50;;;;;;;;;;6240693;23;20227;-89
2022/02/19 08:23:30;;;;;;;7.70;2.00;;;;;;;;;;6240666;23;20154;-90
2022/02/19 08:26:35;;;;;;;6.67;1.80;;;;;;;;;;6240577;22;20173;-90
2022/02/19 08:29:41;;;;;;;9.73;2.07;;;;;;;;;;6245034;23;20221;-90
2022/02/19 08:32:47;;;;;;;7.70;1.83;;;;;;;;;;6241745;23;20163;-90
2022/02/19 08:35:52;;;;;;;6.27;1.57;;;;;;;;;;6242633;23;20159;-89
2022/02/19 08:38:58;;;;;;;8.30;1.63;;;;;;;;;;6242041;22;20167;-89
2022/02/19 08:42:03;;;;;;;7.70;1.67;;;;;;;;;;6241477;22;20166;-91
2022/02/19 08:45:11;;;;;;;10.10;1.87;;;;;;;;;;6243545;22;20174;-90
2022/02/19 08:48:16;;;;;;;7.50;1.80;;;;;;;;;;6244240;23;20193;-90
2022/02/19 08:51:22;;;;;;;24.63;2.40;;;;;;;;;;6242310;23;20163;-91
2022/02/19 08:54:27;;;;;;;11.50;1.70;;;;;;;;;;6241826;23;20222;-90
2022/02/19 08:57:32;;;;;;;9.88;1.92;;;;;;;;;;6243549;22;20193;-91
2022/02/19 09:00:39;;;;;;;8.50;1.90;;;;;;;;;;6244340;22;20166;-90
2022/02/19 09:03:44;;;;;;;6.00;1.27;;;;;;;;;;6247909;23;20171;-90
2022/02/19 09:06:50;;;;;;;7.30;1.38;;;;;;;;;;6245426;23;20182;-90
2022/02/19 09:09:55;;;;;;;7.83;1.70;;;;;;;;;;6242849;23;20155;-89
2022/02/19 09:13:02;;;;;;;5.20;1.20;;;;;;;;;;6243405;23;20153;-91
2022/02/19 09:16:10;;;;;;;4.07;1.20;;;;;;;;;;6248583;22;20210;-89
2022/02/19 09:19:17;;;;;;;8.63;1.45;;;;;;;;;;6246596;23;20503;-90
2022/02/19 09:22:22;;;;;;;7.00;1.40;;;;;;;;;;6246866;23;20219;-91
2022/02/19 09:25:27;;;;;;;7.30;1.30;;;;;;;;;;6243123;23;20218;-90
2022/02/19 09:28:35;;;;;;;6.82;1.30;;;;;;;;;;6242588;23;20241;-90
2022/02/19 09:31:42;;;;;;;9.53;1.43;;;;;;;;;;6248341;22;20158;-90
2022/02/19 09:34:47;;;;;;;7.30;1.65;;;;;;;;;;6242866;23;20170;-89
2022/02/19 09:37:54;;;;;;;7.07;1.20;;;;;;;;;;6245994;23;20165;-91
2022/02/19 09:41:01;;;;;;;10.05;1.20;;;;;;;;;;6243400;23;20163;-91
2022/02/19 09:44:07;;;;;;;3.75;1.20;;;;;;;;;;6242407;23;20162;-90
2022/02/19 09:47:14;;;;;;;5.00;1.33;;;;;;;;;;6241541;22;20162;-90
2022/02/19 09:50:20;;;;;;;5.18;1.17;;;;;;;;;;6242902;22;20250;-90
2022/02/19 09:53:27;;;;;;;7.40;1.48;;;;;;;;;;6242481;23;20218;-90
2022/02/19 09:56:33;;;;;;;11.65;1.23;;;;;;;;;;6243737;23;20606;-91
2022/02/19 09:59:39;;;;;;;10.55;1.65;;;;;;;;;;6242624;23;20154;-90
2022/02/19 10:02:46;;;;;;;7.20;1.63;;;;;;;;;;6242244;22;20158;-90
2022/02/19 10:05:56;;;;;;;4.95;1.55;;;;;;;;;;6245286;23;20215;-90
2022/02/19 10:09:12;;;;;;;6.40;1.70;;;;;;;;;;6243535;23;20293;-90
2022/02/19 10:12:18;;;;;;;6.97;1.35;;;;;;;;;;6243394;23;20228;-89
2022/02/19 10:15:23;;;;;;;7.50;1.50;;;;;;;;;;6240476;23;20236;-90
2022/02/19 10:18:31;;;;;;;4.57;1.13;;;;;;;;;;6242110;23;20169;-90
2022/02/19 10:21:37;;;;;;;4.07;1.00;;;;;;;;;;6243367;23;20169;-90
2022/02/19 10:24:46;;;;;;;9.35;1.80;;;;;;;;;;6242934;22;20178;-90
2022/02/19 10:27:54;;;;;;;5.53;1.35;;;;;;;;;;6243144;23;20248;-90
2022/02/19 10:31:12;;;;;;;4.93;1.10;;;;;;;;;;6242656;23;20167;-89
2022/02/19 10:34:19;;;;;;;7.03;1.10;;;;;;;;;;6244709;22;20228;-90
2022/02/19 10:37:25;;;;;;;8.25;1.42;;;;;;;;;;6243417;23;20678;-90
2022/02/19 10:40:34;;;;;;;8.68;1.52;;;;;;;;;;6243049;22;20237;-90
2022/02/19 10:43:40;;;;;;;6.25;1.10;;;;;;;;;;6243525;23;20259;-90
2022/02/19 10:46:45;;;;;;;4.05;1.40;;;;;;;;;;6243938;23;20198;-90
2022/02/19 10:50:05;;;;;;;7.72;1.00;;;;;;;;;;6244175;22;20583;-91
2022/02/19 10:53:10;;;;;;;5.30;1.05;;;;;;;;;;6244495;22;20182;-89
2022/02/19 10:56:16;;;;;;;5.05;1.23;;;;;;;;;;6242632;23;20209;-91
2022/02/19 10:59:26;;;;;;;7.03;1.27;;;;;;;;;;6241836;23;20495;-90
2022/02/19 11:02:31;;;;;;;2.72;0.90;;;;;;;;;;6243002;23;20159;-91
2022/02/19 11:05:41;;;;;;;6.50;1.20;;;;;;;;;;6241294;23;20170;-90
2022/02/19 11:08:48;;;;;;;3.15;0.70;;;;;;;;;;6241229;23;20259;-90
2022/02/19 11:11:54;;;;;;;6.03;1.30;;;;;;;;;;6242129;23;20585;-90
2022/02/19 11:15:01;;;;;;;4.45;1.23;;;;;;;;;;6268044;22;20177;-90
2022/02/19 11:18:08;;;;;;;6.70;1.10;;;;;;;;;;6246833;23;20203;-90
2022/02/19 11:21:20;;;;;;;6.90;1.30;;;;;;;;;;6248912;22;20241;-89
2022/02/19 11:27:56;;;;;;;6.75;1.58;;;;;;;;;;6248313;23;20205;-90
2022/02/19 11:31:02;;;;;;;3.17;0.90;;;;;;;;;;6248482;22;20183;-90
2022/02/19 11:34:10;;;;;;;7.03;1.30;;;;;;;;;;6245510;22;20154;-89
2022/02/19 11:37:23;;;;;;;5.57;1.58;;;;;;;;;;6246941;22;20229;-91
2022/02/19 11:40:45;;;;;;;8.77;1.40;;;;;;;;;;6244375;23;20501;-90
2022/02/19 11:50:47;;;;;;;5.60;1.48;;;;;;;;;;6244146;23;20187;-90
2022/02/19 11:53:55;;;;;;;7.72;1.63;;;;;;;;;;6244970;23;20167;-89
2022/02/19 11:57:13;;;;;;;6.20;1.30;;;;;;;;;;6246322;22;20174;-90
2022/02/19 12:00:43;;;;;;;4.75;1.33;;;;;;;;;;6246734;22;20565;-90
2022/02/19 12:03:49;;;;;;;5.00;1.30;;;;;;;;;;6244643;23;20170;-91
2022/02/19 12:07:14;;;;;;;5.72;1.10;;;;;;;;;;6245521;23;20213;-90
2022/02/19 12:10:23;;;;;;;3.88;1.10;;;;;;;;;;6246674;23;20183;-90
2022/02/19 12:13:48;;;;;;;5.95;1.13;;;;;;;;;;6245195;22;20170;-91
2022/02/19 12:17:14;;;;;;;5.85;1.15;;;;;;;;;;6245950;23;20190;-91
2022/02/19 12:20:29;;;;;;;7.45;1.50;;;;;;;;;;6244012;23;20235;-90
2022/02/19 12:23:45;;;;;;;3.78;1.17;;;;;;;;;;6244985;22;20158;-89
2022/02/19 12:27:10;;;;;;;6.38;1.67;;;;;;;;;;6246651;23;20186;-90
2022/02/19 12:30:24;;;;;;;8.63;2.60;;;;;;;;;;6244863;23;20194;-89
2022/02/19 12:36:53;;;;;;;7.00;1.20;;;;;;;;;;6248014;23;20186;-89
2022/02/19 12:39:58;;;;;;;6.60;1.80;;;;;;;;;;6250209;23;20167;-90
2022/02/19 12:43:04;;;;;;;5.15;1.17;;;;;;;;;;6247788;23;20182;-91
2022/02/19 12:46:11;;;;;;;2.90;0.93;;;;;;;;;;6245841;23;20194;-89
2022/02/19 12:49:16;;;;;;;4.00;0.85;;;;;;;;;;6247022;23;20201;-88
2022/02/19 12:55:44;;;;;;;4.78;1.20;;;;;;;;;;6250417;23;20183;-92
2022/02/19 12:58:52;;;;;;;4.72;1.20;;;;;;;;;;6251271;23;20154;-90
2022/02/19 13:02:11;;;;;;;4.28;1.00;;;;;;;;;;6249874;23;20211;-92
2022/02/19 23:21:02;;;;;;;9.63;3.30;;;;;;;;;;6260658;22;20568;-90
2022/02/19 23:24:09;;;;;;;13.93;3.37;;;;;;;;;;6268523;23;20236;-89
2022/02/19 23:27:16;;;;;;;8.33;3.37;;;;;;;;;;6249674;23;20174;-91
2022/02/19 23:30:22;;;;;;;13.40;3.20;;;;;;;;;;6249382;23;20195;-89
2022/02/19 23:36:48;;;;;;;16.83;3.53;;;;;;;;;;6249970;22;20232;-91
2022/02/19 23:39:54;;;;;;;13.87;3.77;;;;;;;;;;6249307;23;20166;-91
2022/02/19 23:43:00;;;;;;;11.13;3.13;;;;;;;;;;6250421;23;20154;-90
2022/02/19 23:46:06;;;;;;;13.17;4.00;;;;;;;;;;6249427;23;20190;-88
2022/02/19 23:49:14;;;;;;;9.70;3.00;;;;;;;;;;6247181;23;20178;-89
2022/02/19 23:52:23;;;;;;;12.57;3.30;;;;;;;;;;6246403;23;20199;-89
2022/02/19 23:55:28;;;;;;;12.57;3.70;;;;;;;;;;6244273;23;20173;-89
2022/02/19 23:58:34;;;;;;;11.23;2.93;;;;;;;;;;6247932;23;20189;-90
